Time;durP1;ratioP1;P1;durP2;ratioP2;P2;SDS_P1;SDS_P2;PMS_P1;PMS_P2;Temp;Humidity;BMP_temperature;BMP_pressure;BME280_temperature;BME280_humidity;BME280_pressure;Samples;Min_cycle;Max_cycle;Signal;HPM_P1;HPM_P2
2022/10/15 00:01:07;;;;;;;42.37;31.20;;;12.70;84.80;;;;;;5068947;28;20185;-61
2022/10/15 00:03:35;;;;;;;44.00;32.13;;;12.70;85.00;;;;;;5095493;28;20176;-60
2022/10/15 00:06:09;;;;;;;52.90;33.00;;;12.70;84.90;;;;;;5093261;28;20193;-61
2022/10/15 00:08:35;;;;;;;51.23;34.47;;;12.70;84.80;;;;;;5090245;28;20210;-62
2022/10/15 00:11:03;;;;;;;43.53;32.50;;;12.60;84.90;;;;;;5086165;28;20274;-61
2022/10/15 00:13:29;;;;;;;46.40;33.80;;;12.50;84.90;;;;;;5111566;28;20223;-61
2022/10/15 00:15:55;;;;;;;51.20;33.70;;;12.50;85.10;;;;;;5094890;28;20205;-61
2022/10/15 00:18:20;;;;;;;44.70;32.67;;;12.50;85.20;;;;;;5076634;28;20185;-61
2022/10/15 00:20:46;;;;;;;46.53;33.30;;;12.50;85.20;;;;;;5078078;28;20189;-60
2022/10/15 00:23:12;;;;;;;43.17;32.33;;;12.50;85.10;;;;;;5075470;28;20192;-61
2022/10/15 00:25:37;;;;;;;46.30;31.50;;;12.50;84.90;;;;;;5079737;28;20280;-61
2022/10/15 00:28:03;;;;;;;43.00;32.03;;;12.50;84.90;;;;;;5086863;28;20653;-61
2022/10/15 00:30:28;;;;;;;45.50;32.20;;;12.50;85.00;;;;;;5089756;28;20191;-61
2022/10/15 00:32:54;;;;;;;46.03;31.07;;;12.50;84.80;;;;;;5062248;28;20230;-61
2022/10/15 00:35:20;;;;;;;44.73;31.13;;;12.40;84.80;;;;;;5061661;28;20197;-60
2022/10/15 00:37:45;;;;;;;43.87;31.33;;;12.40;85.00;;;;;;5075536;28;20200;-61
2022/10/15 00:40:13;;;;;;;44.83;32.57;;;12.40;85.40;;;;;;5079255;28;20237;-60
2022/10/15 00:42:39;;;;;;;44.03;32.93;;;12.40;85.10;;;;;;5094310;28;20280;-61
2022/10/15 00:45:09;;;;;;;41.37;30.40;;;12.30;85.10;;;;;;5074620;28;20291;-61
2022/10/15 00:47:41;;;;;;;44.27;31.87;;;12.30;84.90;;;;;;5079980;28;20280;-60
2022/10/15 00:50:12;;;;;;;42.80;30.97;;;12.30;84.90;;;;;;5097408;28;20241;-61
2022/10/15 00:53:05;;;;;;;44.23;33.00;;;12.20;84.90;;;;;;5089089;28;20279;-61
2022/10/15 00:55:33;;;;;;;42.93;31.97;;;12.20;84.90;;;;;;5095063;28;20271;-62
2022/10/15 00:58:05;;;;;;;46.73;32.03;;;12.20;85.00;;;;;;5097010;28;20177;-60
2022/10/15 01:00:32;;;;;;;43.83;31.60;;;12.20;85.00;;;;;;5095710;28;20193;-61
2022/10/15 01:02:57;;;;;;;54.33;33.70;;;12.20;85.00;;;;;;5091614;28;20185;-61
2022/10/15 01:05:23;;;;;;;40.07;29.77;;;12.10;84.80;;;;;;5078128;28;20195;-60
2022/10/15 01:07:49;;;;;;;46.23;31.30;;;12.10;84.90;;;;;;5075018;28;20260;-60
2022/10/15 01:10:16;;;;;;;46.27;31.27;;;12.00;84.80;;;;;;5081061;28;20196;-60
2022/10/15 01:13:14;;;;;;;42.50;31.47;;;12.10;85.10;;;;;;5061876;28;20193;-61
2022/10/15 01:16:01;;;;;;;48.60;31.10;;;12.00;85.00;;;;;;5071510;28;20208;-60
2022/10/15 01:18:49;;;;;;;39.43;30.17;;;12.00;85.20;;;;;;5103203;28;20181;-60
2022/10/15 01:21:50;;;;;;;42.43;30.53;;;12.00;85.20;;;;;;5087809;28;20187;-60
2022/10/15 01:24:31;;;;;;;41.23;29.83;;;12.10;85.10;;;;;;5070028;28;20188;-61
2022/10/15 01:27:02;;;;;;;41.57;30.23;;;12.10;85.00;;;;;;5097418;28;20211;-61
2022/10/15 01:29:51;;;;;;;42.33;31.40;;;12.10;84.90;;;;;;5097768;28;20209;-61
2022/10/15 01:32:28;;;;;;;45.03;31.30;;;12.10;84.70;;;;;;5088782;28;20263;-61
2022/10/15 01:35:09;;;;;;;43.27;29.50;;;12.00;84.90;;;;;;5091223;28;20192;-61
2022/10/15 01:38:00;;;;;;;38.57;28.93;;;11.90;84.80;;;;;;5098523;28;20215;-61
2022/10/15 01:40:30;;;;;;;40.50;29.97;;;12.00;84.70;;;;;;5093610;28;20256;-61
2022/10/15 01:42:58;;;;;;;41.73;30.47;;;12.00;84.70;;;;;;5078989;28;20181;-61
2022/10/15 01:45:35;;;;;;;40.77;30.57;;;11.90;84.70;;;;;;5088145;28;20220;-61
2022/10/15 01:48:05;;;;;;;39.73;28.47;;;11.90;84.60;;;;;;5096193;28;20228;-61
2022/10/15 01:50:34;;;;;;;39.93;30.07;;;11.80;84.70;;;;;;5087012;28;20180;-61
2022/10/15 01:53:01;;;;;;;41.90;29.87;;;11.90;84.90;;;;;;5096534;28;20184;-61
2022/10/15 01:55:28;;;;;;;41.90;29.80;;;11.90;84.80;;;;;;5080576;28;20196;-62
2022/10/15 01:57:57;;;;;;;42.80;30.03;;;11.80;84.90;;;;;;5091304;28;20180;-60
2022/10/15 02:00:23;;;;;;;40.37;29.23;;;11.90;84.90;;;;;;5094940;28;20226;-61
2022/10/15 02:02:49;;;;;;;44.80;30.97;;;11.80;84.80;;;;;;5085770;28;20271;-61
2022/10/15 02:05:22;;;;;;;41.23;27.37;;;11.80;84.90;;;;;;5071292;28;20252;-60
2022/10/15 02:07:53;;;;;;;41.63;29.77;;;11.80;84.80;;;;;;5087823;28;20185;-60
2022/10/15 02:10:29;;;;;;;48.67;30.07;;;11.80;84.90;;;;;;5091955;28;20327;-60
2022/10/15 02:13:00;;;;;;;49.53;31.70;;;11.90;85.10;;;;;;5093987;28;20208;-61
2022/10/15 02:16:04;;;;;;;47.07;31.97;;;11.90;85.30;;;;;;5088826;28;20238;-61
2022/10/15 02:18:53;;;;;;;42.90;29.90;;;11.90;85.30;;;;;;5082706;28;20291;-62
2022/10/15 02:21:40;;;;;;;47.37;31.17;;;12.00;85.30;;;;;;5095210;28;20322;-62
2022/10/15 02:24:12;;;;;;;46.23;32.57;;;11.90;85.20;;;;;;5101508;28;20733;-60
2022/10/15 02:26:40;;;;;;;47.73;29.57;;;11.90;85.30;;;;;;5094316;28;20199;-60
2022/10/15 02:29:12;;;;;;;44.40;30.07;;;11.90;85.30;;;;;;5083773;28;20196;-60
2022/10/15 02:31:42;;;;;;;46.37;29.50;;;11.90;85.40;;;;;;5095270;28;20184;-61
2022/10/15 02:34:11;;;;;;;44.93;32.00;;;11.90;85.30;;;;;;5089239;28;20181;-60
2022/10/15 02:36:39;;;;;;;41.77;30.03;;;11.90;85.20;;;;;;5096429;28;20299;-60
2022/10/15 02:39:08;;;;;;;44.10;29.00;;;11.90;85.30;;;;;;5090672;28;20259;-61
2022/10/15 02:41:35;;;;;;;39.67;29.17;;;11.90;85.40;;;;;;5076576;28;20215;-60
2022/10/15 02:44:02;;;;;;;45.80;30.70;;;11.90;85.20;;;;;;5081688;28;20217;-60
2022/10/15 02:46:28;;;;;;;43.63;29.43;;;11.90;85.60;;;;;;5085085;28;20240;-61
2022/10/15 02:48:54;;;;;;;42.67;30.87;;;11.90;85.60;;;;;;5088227;28;20215;-60
2022/10/15 02:51:19;;;;;;;42.80;29.87;;;11.90;85.60;;;;;;5085677;28;20217;-60
2022/10/15 02:53:45;;;;;;;40.27;29.07;;;11.90;85.60;;;;;;5086767;28;20233;-60
2022/10/15 02:56:11;;;;;;;37.63;29.73;;;11.90;85.40;;;;;;5078262;28;20472;-60
2022/10/15 02:58:36;;;;;;;44.90;30.03;;;11.90;85.50;;;;;;5079808;28;20290;-60
2022/10/15 03:01:02;;;;;;;41.60;29.40;;;11.90;85.50;;;;;;5057077;28;20204;-60
2022/10/15 03:03:28;;;;;;;42.43;30.53;;;11.90;85.40;;;;;;5063884;28;20189;-60
2022/10/15 03:05:54;;;;;;;38.43;30.00;;;11.90;85.50;;;;;;5074453;28;20207;-61
2022/10/15 03:08:19;;;;;;;40.47;29.70;;;11.90;85.50;;;;;;5090014;28;20200;-61
2022/10/15 03:10:45;;;;;;;43.60;31.60;;;12.00;85.50;;;;;;5060321;28;20196;-61
2022/10/15 03:13:11;;;;;;;39.47;29.37;;;12.00;85.70;;;;;;5071636;28;20257;-60
2022/10/15 03:15:37;;;;;;;43.03;30.23;;;12.00;85.60;;;;;;5092996;28;20204;-60
2022/10/15 03:18:03;;;;;;;40.40;29.80;;;12.10;85.90;;;;;;5098023;28;20192;-61
2022/10/15 03:20:29;;;;;;;41.53;30.27;;;12.10;85.80;;;;;;5085832;28;20272;-61
2022/10/15 03:22:55;;;;;;;42.57;31.47;;;12.10;85.60;;;;;;5087610;28;20275;-61
2022/10/15 03:25:20;;;;;;;46.13;31.83;;;12.00;85.60;;;;;;5073330;28;20255;-61
2022/10/15 03:27:46;;;;;;;45.43;30.93;;;12.00;85.90;;;;;;5095859;28;20196;-61
2022/10/15 03:30:12;;;;;;;45.60;31.73;;;12.00;86.10;;;;;;5059626;28;20242;-60
2022/10/15 03:32:38;;;;;;;45.00;31.33;;;12.00;85.90;;;;;;5073591;28;20193;-60
2022/10/15 03:35:04;;;;;;;43.90;30.87;;;12.00;85.90;;;;;;5096440;28;20192;-61
2022/10/15 03:37:30;;;;;;;42.23;32.10;;;12.00;85.80;;;;;;5092137;28;20243;-61
2022/10/15 03:39:56;;;;;;;43.60;31.37;;;12.00;85.90;;;;;;5091602;28;20253;-60
2022/10/15 03:42:21;;;;;;;45.43;31.50;;;11.90;85.90;;;;;;5073174;28;20192;-60
2022/10/15 03:44:47;;;;;;;43.50;30.97;;;11.90;86.00;;;;;;5095355;28;20220;-60
2022/10/15 03:47:13;;;;;;;44.53;32.03;;;12.00;85.90;;;;;;5075333;28;20216;-61
2022/10/15 03:49:38;;;;;;;44.00;30.97;;;12.00;85.80;;;;;;5078519;28;20204;-61
2022/10/15 03:52:04;;;;;;;42.67;30.83;;;11.90;85.90;;;;;;5059571;28;20208;-61
2022/10/15 03:54:30;;;;;;;44.30;31.73;;;11.90;86.00;;;;;;5075407;28;20200;-60
2022/10/15 03:56:55;;;;;;;46.33;32.20;;;12.00;86.10;;;;;;5078570;28;20211;-61
2022/10/15 03:59:21;;;;;;;43.13;32.20;;;11.90;86.10;;;;;;5060500;28;20189;-60
2022/10/15 04:01:47;;;;;;;43.60;32.47;;;11.80;86.80;;;;;;5072186;28;20280;-60
2022/10/15 04:04:13;;;;;;;44.63;32.93;;;11.90;86.70;;;;;;5075611;28;20265;-61
2022/10/15 04:06:38;;;;;;;47.13;32.97;;;11.90;86.50;;;;;;5078780;28;20225;-60
2022/10/15 04:09:04;;;;;;;48.27;32.03;;;11.90;86.50;;;;;;5090228;28;20188;-60
2022/10/15 04:11:30;;;;;;;44.50;32.43;;;11.90;86.40;;;;;;5086080;28;20213;-61
2022/10/15 04:13:56;;;;;;;44.83;32.10;;;11.90;86.50;;;;;;5076901;28;20193;-61
2022/10/15 04:16:22;;;;;;;42.93;30.10;;;12.00;86.50;;;;;;5085233;28;20224;-61
2022/10/15 04:18:48;;;;;;;43.43;30.67;;;12.00;86.30;;;;;;5066062;28;20177;-61
2022/10/15 04:21:13;;;;;;;46.80;31.20;;;12.10;86.20;;;;;;5094091;28;20181;-60
2022/10/15 04:23:39;;;;;;;47.80;31.63;;;12.00;86.10;;;;;;5099445;28;20228;-60
2022/10/15 04:26:05;;;;;;;43.17;31.60;;;12.10;86.10;;;;;;5073206;28;20196;-61
2022/10/15 04:28:32;;;;;;;44.33;32.03;;;12.00;86.50;;;;;;5079339;28;20265;-62
2022/10/15 04:30:59;;;;;;;45.13;32.83;;;12.10;86.50;;;;;;5094227;28;20189;-61
2022/10/15 04:33:25;;;;;;;44.07;31.13;;;12.10;86.40;;;;;;5091756;28;20177;-61
2022/10/15 04:36:17;;;;;;;50.23;31.93;;;12.10;86.40;;;;;;5089322;28;20185;-62
2022/10/15 04:38:43;;;;;;;42.50;30.27;;;12.10;86.30;;;;;;5076706;28;20203;-62
2022/10/15 04:41:11;;;;;;;49.60;32.13;;;12.10;86.30;;;;;;5064827;28;20189;-62
2022/10/15 04:43:38;;;;;;;41.13;30.30;;;12.20;86.20;;;;;;5097414;28;20315;-57
2022/10/15 04:46:05;;;;;;;42.03;29.43;;;12.20;86.20;;;;;;5078679;28;20270;-57
2022/10/15 04:48:34;;;;;;;48.07;32.73;;;12.20;86.20;;;;;;5100405;28;20184;-57
2022/10/15 04:51:12;;;;;;;46.37;30.90;;;12.20;86.20;;;;;;5092957;28;20268;-56
2022/10/15 04:53:38;;;;;;;52.40;32.60;;;12.30;86.20;;;;;;5095801;28;20187;-56
2022/10/15 04:56:07;;;;;;;46.00;33.00;;;12.20;86.10;;;;;;5085332;28;20209;-58
2022/10/15 04:58:34;;;;;;;48.13;32.00;;;12.20;86.40;;;;;;5086088;28;20193;-57
2022/10/15 05:01:08;;;;;;;44.13;31.33;;;12.20;86.30;;;;;;5069886;28;20181;-56
2022/10/15 05:03:34;;;;;;;49.43;34.63;;;12.20;86.30;;;;;;5089132;28;20199;-57
2022/10/15 05:06:05;;;;;;;45.77;32.70;;;12.20;86.20;;;;;;5096784;28;20209;-57
2022/10/15 05:08:32;;;;;;;49.67;32.53;;;11.90;87.50;;;;;;5095928;28;20688;-58
2022/10/15 05:11:03;;;;;;;50.63;34.60;;;11.90;87.70;;;;;;5097096;28;20188;-58
2022/10/15 05:13:29;;;;;;;57.33;35.30;;;11.80;88.20;;;;;;5090182;28;20189;-58
2022/10/15 05:15:55;;;;;;;49.03;34.63;;;11.80;88.50;;;;;;5087709;28;20291;-59
2022/10/15 05:18:21;;;;;;;53.40;36.13;;;11.90;88.30;;;;;;5094946;28;20256;-57
2022/10/15 05:20:46;;;;;;;48.97;35.73;;;11.90;88.20;;;;;;5088210;28;20196;-57
2022/10/15 05:23:13;;;;;;;51.00;35.47;;;11.90;88.50;;;;;;5077796;28;20237;-57
2022/10/15 05:25:38;;;;;;;57.00;36.07;;;12.00;88.80;;;;;;5080067;28;20275;-57
2022/10/15 05:28:04;;;;;;;59.07;37.73;;;12.00;88.90;;;;;;5085386;28;20285;-56
2022/10/15 05:30:31;;;;;;;52.30;36.07;;;12.00;88.90;;;;;;5092288;28;20258;-56
2022/10/15 05:32:57;;;;;;;53.50;37.90;;;12.10;89.10;;;;;;5105983;28;20184;-55
2022/10/15 05:35:23;;;;;;;52.27;36.53;;;12.10;89.10;;;;;;5068013;28;20245;-56
2022/10/15 05:37:49;;;;;;;54.53;37.67;;;12.00;89.00;;;;;;5068380;28;20278;-56
2022/10/15 05:40:15;;;;;;;52.40;36.90;;;12.10;89.00;;;;;;5092578;28;20228;-52
2022/10/15 05:42:40;;;;;;;54.80;39.33;;;12.10;89.10;;;;;;5080394;28;20219;-55
2022/10/15 05:45:07;;;;;;;59.03;39.20;;;12.10;89.40;;;;;;5050258;28;20214;-54
2022/10/15 05:47:32;;;;;;;56.90;40.50;;;12.20;89.70;;;;;;5070851;28;20189;-50
2022/10/15 05:49:58;;;;;;;56.37;37.83;;;12.20;89.80;;;;;;5067572;28;20203;-51
2022/10/15 05:52:23;;;;;;;55.47;38.37;;;12.20;89.70;;;;;;5070626;28;20193;-55
2022/10/15 05:54:49;;;;;;;56.57;38.60;;;12.20;89.60;;;;;;5062250;28;20268;-56
2022/10/15 05:57:15;;;;;;;56.27;39.20;;;12.20;89.60;;;;;;5081720;28;20224;-54
2022/10/15 05:59:41;;;;;;;55.90;37.73;;;12.20;89.80;;;;;;5107407;28;20196;-53
2022/10/15 06:02:08;;;;;;;55.30;38.53;;;12.20;90.10;;;;;;4868646;28;20216;-61
2022/10/15 06:04:34;;;;;;;60.27;39.33;;;12.20;90.40;;;;;;5087977;28;20276;-60
2022/10/15 06:07:00;;;;;;;59.47;39.43;;;12.20;90.70;;;;;;5097302;28;20268;-59
2022/10/15 06:09:27;;;;;;;55.30;37.87;;;12.20;90.80;;;;;;5092483;28;20196;-60
2022/10/15 06:11:52;;;;;;;60.90;39.73;;;12.20;91.00;;;;;;5091296;28;20195;-60
2022/10/15 06:14:18;;;;;;;53.63;37.97;;;12.20;91.10;;;;;;5054241;28;20197;-60
2022/10/15 06:16:44;;;;;;;60.83;38.90;;;12.20;91.20;;;;;;5079085;28;20215;-60
2022/10/15 06:19:10;;;;;;;60.43;41.50;;;12.30;91.50;;;;;;5074679;28;20220;-60
2022/10/15 06:21:36;;;;;;;59.50;40.70;;;12.30;91.50;;;;;;5073934;28;20216;-60
2022/10/15 06:24:02;;;;;;;56.37;38.90;;;12.30;91.50;;;;;;5073760;28;20223;-61
2022/10/15 06:26:27;;;;;;;59.50;40.90;;;12.30;91.50;;;;;;5091816;28;20193;-61
2022/10/15 06:28:54;;;;;;;60.90;39.73;;;12.30;91.50;;;;;;5093740;28;20237;-61
2022/10/15 06:31:19;;;;;;;59.30;41.00;;;12.30;91.50;;;;;;5062432;28;20237;-61
2022/10/15 06:33:45;;;;;;;64.13;41.77;;;12.30;91.60;;;;;;5076375;28;20193;-61
2022/10/15 06:36:12;;;;;;;61.70;41.20;;;12.30;91.60;;;;;;5087380;28;20220;-61
2022/10/15 06:38:38;;;;;;;63.67;42.67;;;12.20;91.60;;;;;;5096349;28;20181;-60
2022/10/15 06:41:05;;;;;;;60.30;41.93;;;12.20;91.80;;;;;;5075506;28;20221;-60
2022/10/15 06:43:31;;;;;;;65.37;43.27;;;12.00;91.60;;;;;;5096197;28;20638;-60
2022/10/15 06:45:58;;;;;;;65.50;44.13;;;12.00;92.10;;;;;;5099306;28;20207;-60
2022/10/15 06:48:24;;;;;;;65.40;43.80;;;12.10;92.30;;;;;;5061459;28;20200;-60
2022/10/15 06:50:49;;;;;;;66.70;44.20;;;12.10;92.40;;;;;;5079132;28;20200;-61
2022/10/15 06:53:15;;;;;;;69.73;45.20;;;12.20;92.80;;;;;;5089388;28;20199;-61
2022/10/15 06:55:41;;;;;;;68.30;45.87;;;12.20;93.10;;;;;;5066713;28;20291;-61
2022/10/15 06:58:06;;;;;;;64.10;43.30;;;12.30;93.00;;;;;;5092570;28;20272;-61
2022/10/15 07:00:32;;;;;;;67.73;44.63;;;12.30;93.10;;;;;;5076320;28;20216;-62
2022/10/15 07:03:05;;;;;;;65.30;43.47;;;12.40;93.10;;;;;;5105943;28;20214;-61
2022/10/15 07:05:31;;;;;;;64.23;43.47;;;12.40;92.90;;;;;;5076859;28;20196;-61
2022/10/15 07:07:57;;;;;;;66.10;44.60;;;12.50;92.90;;;;;;5074531;28;20250;-60
2022/10/15 07:10:25;;;;;;;71.27;45.17;;;12.50;92.90;;;;;;5089720;28;20284;-60
2022/10/15 07:12:52;;;;;;;69.97;45.10;;;12.50;93.10;;;;;;5082914;28;20279;-61
2022/10/15 07:15:19;;;;;;;61.37;43.07;;;12.40;92.90;;;;;;5089704;28;20259;-60
2022/10/15 07:17:55;;;;;;;62.10;43.00;;;12.50;92.80;;;;;;5085775;28;20197;-59
2022/10/15 07:20:21;;;;;;;61.77;43.63;;;12.40;92.60;;;;;;5094602;28;20391;-60
2022/10/15 07:22:47;;;;;;;63.57;43.43;;;12.40;92.70;;;;;;5076146;28;20185;-60
2022/10/15 07:25:13;;;;;;;67.83;45.23;;;12.40;92.70;;;;;;5092565;28;20267;-60
2022/10/15 07:27:39;;;;;;;67.10;43.53;;;12.40;92.80;;;;;;5082486;28;20258;-61
2022/10/15 07:30:07;;;;;;;67.73;46.37;;;12.50;92.80;;;;;;5073180;28;20192;-61
2022/10/15 07:32:33;;;;;;;76.43;47.90;;;12.50;92.90;;;;;;5100716;28;20248;-61
2022/10/15 07:34:59;;;;;;;65.33;46.63;;;12.60;93.00;;;;;;5095062;28;20188;-60
2022/10/15 07:37:25;;;;;;;69.83;45.70;;;12.60;93.00;;;;;;5062719;28;20296;-60
2022/10/15 07:39:50;;;;;;;74.37;46.57;;;12.70;93.00;;;;;;5084154;28;20220;-60
2022/10/15 07:42:16;;;;;;;68.83;46.13;;;12.70;93.00;;;;;;5081445;28;20194;-61
2022/10/15 07:44:42;;;;;;;67.73;47.33;;;12.80;93.00;;;;;;5076835;28;20196;-60
2022/10/15 07:47:07;;;;;;;61.80;44.03;;;12.80;92.90;;;;;;5086689;28;20200;-60
2022/10/15 07:49:33;;;;;;;69.23;45.00;;;12.70;92.70;;;;;;5074938;28;20203;-61
2022/10/15 07:51:58;;;;;;;69.50;45.70;;;12.70;92.60;;;;;;5085908;28;20207;-61
2022/10/15 07:54:24;;;;;;;69.70;45.43;;;12.70;92.80;;;;;;5098814;28;20223;-61
2022/10/15 07:56:50;;;;;;;72.93;45.60;;;12.70;92.80;;;;;;5083303;28;20269;-61
2022/10/15 07:59:15;;;;;;;67.47;45.17;;;12.60;93.10;;;;;;5081623;28;20215;-60
2022/10/15 08:01:41;;;;;;;69.47;45.30;;;12.70;93.10;;;;;;5088112;28;20220;-60
2022/10/15 08:04:07;;;;;;;73.17;46.50;;;12.70;93.30;;;;;;5110447;28;20188;-60
2022/10/15 08:06:32;;;;;;;68.27;46.00;;;12.70;93.40;;;;;;5061643;28;20197;-60
2022/10/15 08:08:58;;;;;;;66.33;48.07;;;12.80;93.50;;;;;;5092083;28;20193;-60
2022/10/15 08:11:24;;;;;;;68.40;47.37;;;12.80;93.60;;;;;;5097205;28;20204;-61
2022/10/15 08:13:51;;;;;;;71.43;46.73;;;12.80;93.60;;;;;;5054092;28;20196;-60
2022/10/15 08:16:18;;;;;;;75.57;47.57;;;12.60;93.20;;;;;;5091659;28;20216;-61
2022/10/15 08:18:45;;;;;;;73.43;46.77;;;12.40;93.10;;;;;;5106313;28;20180;-61
2022/10/15 08:21:11;;;;;;;72.60;46.93;;;12.40;93.30;;;;;;5096602;28;20184;-60
2022/10/15 08:23:36;;;;;;;75.00;47.17;;;12.50;93.50;;;;;;5084984;28;20192;-60
2022/10/15 08:26:03;;;;;;;79.23;49.60;;;12.60;93.50;;;;;;5078784;28;20196;-61
2022/10/15 08:28:30;;;;;;;74.03;47.37;;;12.70;93.50;;;;;;5085295;28;20233;-60
2022/10/15 08:31:00;;;;;;;74.23;50.23;;;12.80;93.50;;;;;;5096828;28;20188;-61
2022/10/15 08:33:27;;;;;;;70.33;48.33;;;12.80;93.50;;;;;;5092230;28;20276;-60
2022/10/15 08:35:53;;;;;;;74.73;48.03;;;12.80;93.50;;;;;;5086240;28;20199;-60
2022/10/15 08:38:18;;;;;;;71.70;47.43;;;12.80;93.30;;;;;;5076033;28;20192;-60
2022/10/15 08:40:49;;;;;;;67.60;45.70;;;12.80;93.40;;;;;;5092969;28;20228;-60
2022/10/15 08:43:23;;;;;;;69.07;46.70;;;12.80;93.40;;;;;;5077535;28;20189;-60
2022/10/15 08:45:53;;;;;;;69.87;46.77;;;12.90;93.30;;;;;;5088266;28;20187;-60
2022/10/15 08:48:28;;;;;;;71.83;48.37;;;12.90;93.40;;;;;;5078986;28;20200;-61
2022/10/15 08:51:02;;;;;;;74.47;49.10;;;12.90;93.30;;;;;;5087190;28;20180;-61
2022/10/15 08:53:29;;;;;;;79.00;49.90;;;13.00;93.50;;;;;;5095290;28;20199;-61
2022/10/15 08:55:59;;;;;;;76.37;50.30;;;13.00;93.30;;;;;;5075782;28;20241;-61
2022/10/15 08:58:35;;;;;;;80.47;50.40;;;13.10;93.30;;;;;;5092291;28;20203;-61
2022/10/15 09:01:17;;;;;;;73.13;49.87;;;13.10;93.10;;;;;;5092521;28;20176;-61
2022/10/15 09:04:21;;;;;;;73.57;49.33;;;13.20;93.00;;;;;;5094007;28;20228;-61
2022/10/15 09:06:54;;;;;;;74.80;49.03;;;13.20;93.20;;;;;;5107186;28;20192;-61
2022/10/15 09:09:38;;;;;;;66.47;44.83;;;13.20;93.30;;;;;;5107660;28;20192;-61
2022/10/15 09:12:35;;;;;;;71.33;48.03;;;13.30;93.30;;;;;;5096666;28;20188;-61
2022/10/15 09:15:04;;;;;;;74.63;50.87;;;13.30;93.40;;;;;;5095092;28;20205;-61
2022/10/15 09:17:31;;;;;;;81.27;50.60;;;13.30;93.20;;;;;;5092573;28;20228;-61
2022/10/15 09:19:58;;;;;;;79.70;50.77;;;13.40;93.50;;;;;;5094673;28;20208;-61
2022/10/15 09:22:28;;;;;;;72.53;49.03;;;13.50;93.80;;;;;;5073754;28;20193;-61
2022/10/15 09:24:54;;;;;;;72.10;47.40;;;13.50;93.30;;;;;;5090147;28;20211;-60
2022/10/15 09:27:35;;;;;;;77.43;49.53;;;13.60;93.50;;;;;;5074991;28;20200;-60
2022/10/15 09:30:06;;;;;;;78.73;51.07;;;13.60;93.10;;;;;;5092022;28;20189;-61
2022/10/15 09:32:41;;;;;;;65.47;45.43;;;13.70;93.20;;;;;;5092929;28;20276;-61
2022/10/15 09:35:14;;;;;;;69.70;44.90;;;13.70;93.20;;;;;;5088724;28;20198;-60
2022/10/15 09:37:55;;;;;;;75.07;49.53;;;13.80;93.10;;;;;;5091930;28;20205;-60
2022/10/15 09:40:43;;;;;;;77.27;50.90;;;13.80;92.50;;;;;;5091934;28;20247;-60
2022/10/15 09:43:10;;;;;;;78.87;50.90;;;13.80;92.30;;;;;;5090185;28;20192;-60
2022/10/15 09:45:36;;;;;;;73.47;51.40;;;13.80;92.60;;;;;;5111405;28;20201;-60
2022/10/15 09:48:13;;;;;;;69.10;47.37;;;13.80;92.90;;;;;;5077663;28;20564;-60
2022/10/15 09:50:43;;;;;;;78.23;49.10;;;13.90;93.10;;;;;;5085208;28;20197;-60
2022/10/15 09:53:48;;;;;;;72.03;48.07;;;14.00;93.10;;;;;;5120062;27;20193;-60
2022/10/15 09:56:30;;;;;;;77.60;48.47;;;14.20;93.30;;;;;;5079891;28;20291;-60
2022/10/15 09:58:57;;;;;;;78.57;50.37;;;14.30;92.80;;;;;;5085141;28;20216;-60
2022/10/15 10:01:25;;;;;;;78.73;52.37;;;14.50;93.10;;;;;;5084284;28;20279;-60
2022/10/15 10:03:54;;;;;;;72.90;51.07;;;14.60;93.10;;;;;;5078909;28;20185;-59
2022/10/15 10:06:23;;;;;;;62.87;45.20;;;14.70;92.90;;;;;;5107305;28;20185;-60
2022/10/15 10:08:57;;;;;;;69.83;46.30;;;14.80;92.80;;;;;;5090173;28;20279;-59
2022/10/15 10:11:24;;;;;;;62.73;44.80;;;14.70;91.50;;;;;;5072422;28;20201;-59
2022/10/15 10:13:55;;;;;;;65.23;46.10;;;14.70;91.70;;;;;;5090464;28;20189;-60
2022/10/15 10:16:21;;;;;;;65.93;44.90;;;14.70;91.50;;;;;;5087939;28;20233;-61
2022/10/15 10:19:12;;;;;;;66.77;45.20;;;14.60;91.60;;;;;;5072514;28;20190;-60
2022/10/15 10:21:41;;;;;;;62.17;43.13;;;14.60;91.40;;;;;;5090529;28;20189;-60
2022/10/15 10:24:36;;;;;;;65.20;43.77;;;14.60;91.70;;;;;;5059910;28;20186;-60
2022/10/15 10:27:03;;;;;;;59.40;41.97;;;14.60;91.80;;;;;;5058410;28;20209;-60
2022/10/15 10:29:35;;;;;;;60.90;44.27;;;14.60;92.10;;;;;;5074251;28;20260;-60
2022/10/15 10:32:16;;;;;;;66.53;45.83;;;14.60;91.20;;;;;;5091577;28;20223;-60
2022/10/15 10:34:42;;;;;;;64.97;46.87;;;14.70;91.90;;;;;;5092842;28;20327;-60
2022/10/15 10:37:10;;;;;;;62.93;44.27;;;14.70;91.50;;;;;;5058538;28;20218;-60
2022/10/15 10:39:36;;;;;;;63.27;44.40;;;14.80;91.90;;;;;;5088070;28;20236;-60
2022/10/15 10:42:07;;;;;;;63.87;44.67;;;14.80;91.00;;;;;;5089423;28;20193;-60
2022/10/15 10:44:38;;;;;;;61.27;42.33;;;14.80;91.10;;;;;;5073997;28;20278;-60
2022/10/15 10:47:07;;;;;;;61.77;43.60;;;14.90;91.20;;;;;;5086443;28;20192;-60
2022/10/15 10:49:36;;;;;;;64.43;44.43;;;15.00;90.80;;;;;;5083784;28;20188;-60
2022/10/15 10:52:02;;;;;;;69.67;47.17;;;14.80;89.60;;;;;;5107976;28;20285;-59
2022/10/15 10:54:30;;;;;;;56.53;43.00;;;14.90;91.10;;;;;;5060739;28;20193;-60
2022/10/15 10:56:58;;;;;;;66.30;44.87;;;15.00;91.00;;;;;;5072398;28;20212;-60
2022/10/15 10:59:35;;;;;;;59.97;43.10;;;14.90;89.10;;;;;;5090223;28;20185;-60
2022/10/15 11:02:03;;;;;;;67.77;46.20;;;15.00;89.80;;;;;;5077718;28;20199;-60
2022/10/15 11:04:34;;;;;;;62.60;47.83;;;14.90;89.50;;;;;;5053099;28;20193;-60
2022/10/15 11:07:00;;;;;;;60.77;44.13;;;14.80;89.40;;;;;;5088922;28;20201;-60
2022/10/15 11:10:10;;;;;;;66.77;48.77;;;14.70;88.40;;;;;;5089812;28;20189;-60
2022/10/15 11:12:39;;;;;;;59.40;43.27;;;14.80;89.80;;;;;;5081129;28;20198;-60
2022/10/15 11:15:23;;;;;;;67.97;46.93;;;14.90;89.10;;;;;;5088986;28;20256;-59
2022/10/15 11:18:07;;;;;;;68.77;45.43;;;15.00;90.60;;;;;;5080089;28;20274;-59
2022/10/15 11:21:06;;;;;;;68.53;46.80;;;15.20;90.70;;;;;;5080540;28;20221;-59
2022/10/15 11:23:56;;;;;;;59.53;43.80;;;15.20;89.40;;;;;;5087324;28;20208;-60
2022/10/15 11:26:46;;;;;;;58.87;43.70;;;15.30;90.60;;;;;;5089738;28;20374;-60
2022/10/15 11:29:37;;;;;;;57.80;43.37;;;15.30;90.20;;;;;;5083123;28;20196;-60
2022/10/15 11:32:22;;;;;;;54.77;41.23;;;15.30;89.90;;;;;;5099617;28;20280;-60
2022/10/15 11:35:35;;;;;;;63.57;43.60;;;15.20;88.90;;;;;;5102064;28;20285;-60
2022/10/15 11:38:28;;;;;;;64.33;43.83;;;15.00;89.40;;;;;;5058165;28;20228;-60
2022/10/15 11:41:12;;;;;;;65.63;46.30;;;15.10;90.50;;;;;;5086373;28;139459;-60
2022/10/15 11:43:41;;;;;;;66.87;46.57;;;15.20;91.20;;;;;;5092302;28;20579;-60
2022/10/15 11:46:44;;;;;;;64.00;46.13;;;15.30;90.80;;;;;;5092200;28;20188;-60
2022/10/15 11:49:16;;;;;;;62.07;43.53;;;15.20;90.10;;;;;;5096349;28;20177;-61
2022/10/15 11:52:22;;;;;;;55.40;41.63;;;15.10;90.90;;;;;;5093665;28;20279;-60
2022/10/15 11:55:15;;;;;;;66.43;46.73;;;15.20;91.60;;;;;;5079202;28;20195;-61
2022/10/15 11:57:44;;;;;;;68.83;45.60;;;15.30;92.10;;;;;;5093174;28;20303;-59
2022/10/15 12:00:22;;;;;;;65.23;44.60;;;15.30;91.30;;;;;;5091202;28;20185;-59
2022/10/15 12:02:49;;;;;;;57.57;43.27;;;15.20;89.90;;;;;;5093378;28;20177;-59
2022/10/15 12:05:52;;;;;;;61.97;45.43;;;15.10;88.90;;;;;;5081368;28;20169;-59
2022/10/15 12:08:19;;;;;;;61.23;44.83;;;15.20;89.40;;;;;;5098612;28;20192;-59
2022/10/15 12:11:08;;;;;;;58.60;44.30;;;15.10;90.00;;;;;;5093180;28;20196;-60
2022/10/15 12:13:56;;;;;;;62.03;44.83;;;15.20;89.90;;;;;;5078849;28;20200;-60
2022/10/15 12:16:52;;;;;;;55.43;42.27;;;15.20;90.70;;;;;;5093397;28;20431;-60
2022/10/15 12:19:21;;;;;;;73.63;45.17;;;15.30;91.30;;;;;;5083375;28;20656;-60
2022/10/15 12:21:56;;;;;;;61.10;44.63;;;15.30;90.30;;;;;;5079140;28;20177;-59
2022/10/15 12:24:37;;;;;;;60.23;41.77;;;15.30;90.10;;;;;;5080604;28;20195;-59
2022/10/15 12:27:17;;;;;;;60.00;42.10;;;15.20;89.00;;;;;;5085743;28;20216;-59
2022/10/15 12:29:58;;;;;;;50.80;38.23;;;15.30;90.10;;;;;;5081371;28;20203;-60
2022/10/15 12:32:26;;;;;;;48.47;37.70;;;15.30;89.80;;;;;;5090480;28;20219;-60
2022/10/15 12:34:59;;;;;;;49.77;36.93;;;15.30;89.90;;;;;;5111652;28;20195;-60
2022/10/15 12:37:28;;;;;;;53.03;38.57;;;15.30;88.50;;;;;;5088149;28;20298;-61
2022/10/15 12:40:21;;;;;;;48.47;37.40;;;15.30;89.20;;;;;;5083843;28;20239;-60
2022/10/15 12:42:54;;;;;;;53.13;37.33;;;15.40;90.00;;;;;;5094594;28;20229;-59
2022/10/15 12:45:23;;;;;;;51.83;39.03;;;15.50;89.70;;;;;;5095574;28;20268;-60